Time;durP1;ratioP1;P1;durP2;ratioP2;P2;SDS_P1;SDS_P2;PMS_P1;PMS_P2;Temp;Humidity;BMP_temperature;BMP_pressure;BME280_temperature;BME280_humidity;BME280_pressure;Samples;Min_cycle;Max_cycle;Signal;HPM_P1;HPM_P2
2022/02/04 00:21:44;;;;;;;8.30;5.93;;;5.90;80.90;;;;;;4975851;28;20044;-68
2022/02/04 00:24:12;;;;;;;10.15;5.80;;;5.80;81.10;;;;;;4976425;28;20529;-67
2022/02/04 00:26:45;;;;;;;8.98;6.00;;;5.70;81.80;;;;;;4974006;28;20587;-66
2022/02/04 00:29:30;;;;;;;7.90;5.45;;;5.70;82.10;;;;;;4975023;28;20113;-67
2022/02/04 00:32:02;;;;;;;7.70;5.77;;;5.60;82.30;;;;;;4974252;28;20102;-67
2022/02/04 00:34:35;;;;;;;8.88;5.90;;;5.70;82.00;;;;;;4975147;28;20312;-67
2022/02/04 00:39:37;;;;;;;11.30;7.82;;;5.60;81.60;;;;;;4976213;28;20030;-67
2022/02/04 00:42:08;;;;;;;12.98;7.63;;;5.60;81.90;;;;;;4975113;28;20038;-67
2022/02/04 00:44:36;;;;;;;11.80;7.65;;;5.60;82.10;;;;;;4975281;28;20034;-66
2022/02/04 00:47:04;;;;;;;15.07;9.35;;;5.50;82.30;;;;;;4973667;28;20034;-67
2022/02/04 00:52:28;;;;;;;14.87;9.33;;;5.50;82.90;;;;;;4974807;28;20119;-67
2022/02/04 00:55:09;;;;;;;13.43;9.20;;;5.50;83.10;;;;;;4973120;28;20053;-68
2022/02/04 01:27:25;;;;;;;13.77;8.82;;;5.20;83.00;;;;;;4980896;28;20417;-68
2022/02/04 01:32:20;;;;;;;13.30;8.77;;;5.20;82.30;;;;;;4978448;28;20046;-67
2022/02/04 01:34:45;;;;;;;13.77;9.48;;;5.10;82.30;;;;;;4979834;28;20105;-67
2022/02/04 01:37:11;;;;;;;12.02;8.50;;;5.20;82.50;;;;;;4977722;28;20066;-67
2022/02/04 01:39:37;;;;;;;15.40;8.32;;;5.10;82.10;;;;;;4978413;28;20556;-67
2022/02/04 01:42:02;;;;;;;11.55;8.00;;;5.10;81.70;;;;;;4977522;28;20058;-67
2022/02/04 01:44:29;;;;;;;13.02;8.93;;;5.10;81.50;;;;;;4975731;28;20053;-67
2022/02/04 01:46:55;;;;;;;14.23;9.50;;;5.10;81.20;;;;;;4978965;28;20041;-68
2022/02/04 01:49:24;;;;;;;13.15;8.68;;;5.00;81.00;;;;;;4981373;28;20035;-68
2022/02/04 01:51:50;;;;;;;12.68;7.88;;;5.00;81.30;;;;;;4981786;28;20038;-68
2022/02/04 01:54:16;;;;;;;13.85;8.85;;;5.00;81.30;;;;;;4979163;28;20173;-68
2022/02/04 01:56:42;;;;;;;12.88;9.00;;;5.00;81.30;;;;;;4976579;28;20893;-68
2022/02/04 01:59:08;;;;;;;14.52;8.75;;;4.90;81.30;;;;;;4978025;28;20050;-69
2022/02/04 02:01:34;;;;;;;15.73;9.20;;;4.90;81.10;;;;;;4981217;28;20042;-67
2022/02/04 02:04:01;;;;;;;13.90;9.05;;;4.90;81.10;;;;;;4976668;28;20050;-67
2022/02/04 02:06:49;;;;;;;15.20;9.38;;;4.90;81.10;;;;;;4979407;28;20034;-66
2022/02/04 02:09:15;;;;;;;16.23;10.25;;;4.80;81.40;;;;;;4975875;28;20049;-67
2022/02/04 02:11:41;;;;;;;17.17;10.73;;;4.80;81.60;;;;;;4976777;28;20034;-68
2022/02/04 02:14:11;;;;;;;17.45;10.48;;;4.80;82.00;;;;;;4976983;28;20034;-67
2022/02/04 02:59:21;;;;;;;18.17;10.60;;;4.70;82.60;;;;;;4969779;28;20031;-67
2022/02/04 03:01:48;;;;;;;17.42;10.90;;;4.70;82.50;;;;;;4975735;28;20552;-66
2022/02/04 03:04:16;;;;;;;17.73;10.95;;;4.70;82.50;;;;;;4983922;28;20046;-66
2022/02/04 03:06:43;;;;;;;20.35;12.32;;;4.70;82.60;;;;;;4977628;28;20034;-66
2022/02/04 03:09:09;;;;;;;19.95;11.25;;;4.70;82.70;;;;;;4975668;28;20090;-66
2022/02/04 03:11:35;;;;;;;18.90;12.20;;;4.80;82.80;;;;;;4989308;28;20062;-67
2022/02/04 03:14:01;;;;;;;21.88;12.13;;;4.80;82.80;;;;;;4976753;28;20047;-66
2022/02/04 03:16:28;;;;;;;19.60;11.88;;;4.80;83.00;;;;;;4976073;28;20049;-66
2022/02/04 03:18:55;;;;;;;21.98;12.43;;;4.80;83.30;;;;;;4975237;28;20517;-67
2022/02/04 03:21:44;;;;;;;19.77;11.82;;;4.80;83.50;;;;;;4976805;28;20058;-67
2022/02/04 03:24:15;;;;;;;19.98;11.77;;;4.80;83.80;;;;;;4973796;28;20042;-66
2022/02/04 03:26:54;;;;;;;20.55;12.20;;;4.90;84.10;;;;;;4975923;28;20045;-68
2022/02/04 03:29:36;;;;;;;20.02;12.30;;;4.90;84.20;;;;;;4977353;28;20599;-67
2022/02/04 03:32:07;;;;;;;23.00;11.80;;;4.90;84.40;;;;;;4977738;28;20039;-68
2022/02/04 03:34:33;;;;;;;20.05;12.25;;;5.00;84.60;;;;;;4976546;28;20054;-68
2022/02/04 03:36:59;;;;;;;22.52;12.35;;;5.00;84.60;;;;;;4975605;28;20031;-68
2022/02/04 03:39:25;;;;;;;20.02;12.32;;;5.00;84.60;;;;;;4976348;28;20066;-66
2022/02/04 03:41:50;;;;;;;19.90;12.27;;;5.00;84.60;;;;;;4975798;28;20034;-68
2022/02/04 03:44:16;;;;;;;20.10;12.10;;;5.10;84.70;;;;;;4987297;28;20125;-67
2022/02/04 03:46:42;;;;;;;25.52;12.95;;;5.10;84.70;;;;;;4975935;28;20125;-66
2022/02/04 03:49:07;;;;;;;19.17;11.85;;;5.10;84.80;;;;;;4974660;28;20025;-67
2022/02/04 03:51:33;;;;;;;23.70;15.15;;;5.20;84.90;;;;;;4977409;28;20046;-68
2022/02/04 03:53:58;;;;;;;21.98;13.32;;;5.20;84.80;;;;;;4976261;28;20541;-67
2022/02/04 03:56:24;;;;;;;21.65;13.27;;;5.20;84.80;;;;;;4975892;28;20506;-67
2022/02/04 03:58:49;;;;;;;20.35;12.95;;;5.30;84.90;;;;;;4974444;28;20022;-66
2022/02/04 04:01:15;;;;;;;20.77;13.23;;;5.40;84.90;;;;;;4975067;28;20038;-68
2022/02/04 04:03:43;;;;;;;21.67;13.48;;;5.40;84.80;;;;;;4974243;28;21973;-66
2022/02/04 04:06:10;;;;;;;23.83;13.98;;;5.40;84.80;;;;;;4976151;28;20116;-66
2022/02/04 04:08:35;;;;;;;24.52;14.00;;;5.50;84.80;;;;;;4976009;28;20058;-68
2022/02/04 04:11:01;;;;;;;24.27;14.60;;;5.50;84.80;;;;;;4976349;28;20425;-67
2022/02/04 04:13:27;;;;;;;23.40;14.02;;;5.60;84.80;;;;;;4975233;28;20031;-67
2022/02/04 04:15:53;;;;;;;26.73;14.38;;;5.60;84.70;;;;;;4973942;28;20034;-68
2022/02/04 04:18:18;;;;;;;24.13;14.30;;;5.60;84.70;;;;;;4975108;28;20047;-66
2022/02/04 04:20:45;;;;;;;23.85;14.45;;;5.70;84.60;;;;;;4973822;28;20045;-67
2022/02/04 04:23:12;;;;;;;23.63;14.23;;;5.70;84.60;;;;;;4974434;28;20576;-66
2022/02/04 04:25:38;;;;;;;24.33;14.68;;;5.70;84.40;;;;;;4974783;28;20038;-67
2022/02/04 04:28:05;;;;;;;24.13;14.90;;;5.70;84.40;;;;;;4976246;28;20031;-67
2022/02/04 04:30:30;;;;;;;25.40;15.07;;;5.70;84.20;;;;;;4975488;28;20046;-68
2022/02/04 04:32:57;;;;;;;22.67;14.00;;;5.70;84.20;;;;;;4974538;28;20039;-68
2022/02/04 04:35:25;;;;;;;23.00;14.02;;;5.80;84.20;;;;;;4974881;28;20047;-66
2022/02/04 05:29:32;;;;;;;24.42;12.80;;;5.70;82.80;;;;;;4974759;28;20090;-66
2022/02/04 05:31:58;;;;;;;24.40;13.70;;;5.60;82.80;;;;;;4975920;28;20046;-67
2022/02/04 05:34:24;;;;;;;20.67;13.13;;;5.60;82.80;;;;;;4976472;28;20050;-67
2022/02/04 05:36:59;;;;;;;21.67;13.98;;;5.60;82.90;;;;;;4977908;28;20027;-67
2022/02/04 05:39:29;;;;;;;21.15;13.38;;;5.70;83.00;;;;;;4975396;28;20031;-66
2022/02/04 05:41:55;;;;;;;23.60;13.85;;;5.70;82.90;;;;;;4976549;28;20058;-66
2022/02/04 05:44:21;;;;;;;27.02;15.02;;;5.70;83.00;;;;;;4976627;28;20572;-66
2022/02/04 05:47:13;;;;;;;24.58;14.90;;;5.70;83.00;;;;;;4972262;28;20043;-68
2022/02/04 05:49:37;;;;;;;27.88;17.45;;;5.70;83.00;;;;;;4981918;28;20026;-66
2022/02/04 05:52:13;;;;;;;24.00;15.43;;;5.70;83.00;;;;;;4976672;28;20041;-66
2022/02/04 05:55:00;;;;;;;26.02;16.50;;;5.70;83.20;;;;;;4977649;28;20036;-66
2022/02/04 05:57:40;;;;;;;25.02;15.75;;;5.80;83.20;;;;;;4979630;28;20042;-66
2022/02/04 06:02:45;;;;;;;23.23;14.93;;;5.80;83.30;;;;;;4978030;28;20030;-66
2022/02/04 06:05:28;;;;;;;25.50;15.52;;;5.80;83.30;;;;;;4977465;28;20035;-66
2022/02/04 06:14:04;;;;;;;23.05;15.10;;;5.80;83.30;;;;;;4974849;28;20290;-66
2022/02/04 06:24:37;;;;;;;23.25;14.25;;;5.90;83.20;;;;;;4977974;28;20062;-67
2022/02/04 06:27:04;;;;;;;22.40;14.40;;;5.90;83.20;;;;;;4977544;28;20464;-67
2022/02/04 06:29:30;;;;;;;22.70;14.73;;;5.90;83.80;;;;;;4978557;28;20030;-66
2022/02/04 06:31:57;;;;;;;22.20;14.35;;;5.90;83.30;;;;;;4977984;28;20044;-66
2022/02/04 06:34:22;;;;;;;21.95;14.30;;;5.90;83.40;;;;;;4976679;28;20413;-66
2022/02/04 06:36:48;;;;;;;23.35;14.63;;;6.00;83.40;;;;;;4977635;28;20035;-67
2022/02/04 06:39:14;;;;;;;21.55;13.93;;;6.00;83.40;;;;;;4977008;28;20034;-67
2022/02/04 06:41:39;;;;;;;23.02;14.43;;;6.00;83.50;;;;;;4978964;28;20574;-68
2022/02/04 06:44:06;;;;;;;23.75;14.35;;;6.00;83.40;;;;;;4976806;28;20037;-66
2022/02/04 06:46:32;;;;;;;21.13;14.05;;;6.00;83.50;;;;;;4978243;28;20034;-67
2022/02/04 06:48:57;;;;;;;21.50;13.93;;;6.00;83.30;;;;;;4978295;28;20031;-67
2022/02/04 06:51:23;;;;;;;22.60;14.02;;;6.10;83.30;;;;;;4977986;28;20473;-65
2022/02/04 06:53:49;;;;;;;20.77;13.65;;;6.00;83.20;;;;;;4979296;28;20030;-66
2022/02/04 06:56:15;;;;;;;20.48;13.65;;;6.10;83.30;;;;;;4978665;28;20101;-65
2022/02/04 06:58:40;;;;;;;23.95;14.50;;;6.10;83.30;;;;;;4976396;28;20038;-66
2022/02/04 07:01:06;;;;;;;22.10;14.93;;;6.10;83.30;;;;;;4978332;28;20042;-67
2022/02/04 07:03:33;;;;;;;21.70;14.73;;;6.10;83.20;;;;;;4975867;28;20053;-67
2022/02/04 07:06:01;;;;;;;20.70;13.95;;;6.10;83.20;;;;;;4976655;28;20042;-66
2022/02/04 07:08:33;;;;;;;21.20;14.18;;;6.20;83.30;;;;;;4976824;28;20559;-66
2022/02/04 07:21:32;;;;;;;18.63;12.73;;;6.20;83.10;;;;;;4977137;28;20037;-66
2022/02/04 07:23:57;;;;;;;20.13;12.60;;;6.30;83.10;;;;;;4976416;28;20027;-67
2022/02/04 07:26:23;;;;;;;18.52;12.68;;;6.30;83.10;;;;;;4975570;28;21810;-67
2022/02/04 07:28:48;;;;;;;18.42;12.27;;;6.30;83.00;;;;;;4979086;28;20043;-67
2022/02/04 07:31:15;;;;;;;18.70;12.60;;;6.30;83.00;;;;;;4978969;28;20409;-66
2022/02/04 07:33:48;;;;;;;18.08;12.38;;;6.30;83.90;;;;;;4976976;28;20045;-66
2022/02/04 07:41:39;;;;;;;16.88;10.95;;;6.40;82.90;;;;;;4978876;28;20037;-66
2022/02/04 07:44:05;;;;;;;17.55;11.75;;;6.40;82.80;;;;;;4979532;28;20118;-68
2022/02/04 07:46:31;;;;;;;17.67;11.70;;;6.40;82.80;;;;;;4976378;28;20121;-68
2022/02/04 07:48:56;;;;;;;19.13;11.80;;;6.40;82.80;;;;;;4975554;28;20172;-66
2022/02/04 07:51:22;;;;;;;14.52;10.70;;;6.40;82.80;;;;;;4974788;28;20034;-68
2022/02/04 07:53:47;;;;;;;15.05;11.13;;;6.50;82.80;;;;;;4976591;28;20035;-65
2022/02/04 07:56:19;;;;;;;16.25;11.30;;;6.50;82.60;;;;;;4980331;28;20042;-67
2022/02/04 07:58:54;;;;;;;16.55;11.68;;;6.50;82.60;;;;;;4976243;28;20042;-67
2022/02/04 08:01:25;;;;;;;17.38;11.00;;;6.50;82.60;;;;;;4976092;28;20174;-67
2022/02/04 08:03:56;;;;;;;16.58;11.85;;;6.50;82.50;;;;;;4975411;28;20054;-67
2022/02/04 08:06:24;;;;;;;16.13;11.40;;;6.60;82.50;;;;;;4974396;28;20093;-67
2022/02/04 08:09:04;;;;;;;16.73;11.07;;;6.60;82.50;;;;;;4975838;28;20043;-67
2022/02/04 08:11:51;;;;;;;16.70;11.25;;;6.60;82.50;;;;;;4977741;28;20060;-67
2022/02/04 08:14:30;;;;;;;16.33;10.95;;;6.60;82.40;;;;;;4975679;28;20145;-67
2022/02/04 08:17:19;;;;;;;17.95;11.88;;;6.60;82.30;;;;;;4976687;28;20023;-67
2022/02/04 08:22:44;;;;;;;15.10;9.77;;;6.70;82.30;;;;;;4974334;28;20966;-66
2022/02/04 08:33:19;;;;;;;37.55;18.30;;;6.70;82.30;;;;;;4977258;28;20056;-67
2022/02/04 08:36:02;;;;;;;17.73;12.10;;;6.80;82.20;;;;;;4976915;28;20056;-66
2022/02/04 08:55:08;;;;;;;16.40;10.57;;;6.90;82.00;;;;;;4979185;28;20410;-67
2022/02/04 08:57:11;;;;;;;15.15;9.55;;;6.90;82.70;;;;;;4972507;28;20030;-67
2022/02/04 09:02:35;;;;;;;11.95;8.82;;;7.00;81.80;;;;;;4973787;28;20035;-66
2022/02/04 09:05:04;;;;;;;12.40;8.63;;;6.90;81.50;;;;;;4977621;28;20035;-68
2022/02/04 09:07:43;;;;;;;13.00;9.30;;;7.00;81.50;;;;;;4979088;28;20042;-66
2022/02/04 09:10:11;;;;;;;10.90;8.32;;;7.00;81.50;;;;;;4978983;28;20532;-67
2022/02/04 09:22:55;;;;;;;11.40;7.63;;;7.10;81.20;;;;;;4982662;28;20107;-67
2022/02/04 09:25:21;;;;;;;11.48;7.82;;;7.10;81.20;;;;;;4982834;28;20038;-66
2022/02/04 09:27:47;;;;;;;13.38;9.23;;;7.20;81.20;;;;;;4984716;28;20046;-66
2022/02/04 09:30:14;;;;;;;12.55;8.27;;;7.20;81.20;;;;;;4989126;28;20035;-67
2022/02/04 09:32:41;;;;;;;12.20;8.82;;;7.20;81.00;;;;;;4981823;28;20074;-66
2022/02/04 09:35:10;;;;;;;14.80;9.43;;;7.30;81.00;;;;;;4984852;28;20038;-67
2022/02/04 09:37:36;;;;;;;14.02;9.18;;;7.30;81.00;;;;;;4982969;28;20165;-68
2022/02/04 09:40:03;;;;;;;17.95;10.68;;;7.30;81.00;;;;;;4983907;28;20442;-67
2022/02/04 09:42:29;;;;;;;19.08;11.18;;;7.30;80.90;;;;;;4982319;28;20031;-67
2022/02/04 09:44:55;;;;;;;11.90;8.60;;;7.40;80.90;;;;;;4982614;28;20379;-66
2022/02/04 09:47:24;;;;;;;9.13;6.97;;;7.40;80.70;;;;;;4982167;28;20065;-66
2022/02/04 09:49:54;;;;;;;9.25;6.00;;;7.40;80.60;;;;;;4981395;28;20039;-67
2022/02/04 10:09:17;;;;;;;7.68;5.97;;;7.70;80.30;;;;;;4978324;28;20035;-67
2022/02/04 10:22:15;;;;;;;8.68;6.07;;;8.00;80.10;;;;;;4980901;28;20422;-67
2022/02/04 10:24:40;;;;;;;9.80;6.13;;;8.00;80.10;;;;;;4979659;28;20658;-66
2022/02/04 10:27:12;;;;;;;11.80;6.28;;;8.10;79.90;;;;;;4981543;28;20512;-66
2022/02/04 10:29:39;;;;;;;8.35;5.53;;;8.10;79.50;;;;;;4981661;28;20080;-67
2022/02/04 10:32:05;;;;;;;9.80;6.03;;;8.20;79.60;;;;;;4983389;28;20065;-66
2022/02/04 10:34:32;;;;;;;7.25;5.53;;;8.20;79.40;;;;;;4982780;28;20067;-67
2022/02/04 10:37:18;;;;;;;8.25;6.55;;;8.20;79.40;;;;;;4982905;28;20026;-67
2022/02/04 11:03:30;;;;;;;6.70;5.47;;;8.50;77.90;;;;;;4977543;28;20051;-67
2022/02/04 11:06:13;;;;;;;7.07;5.75;;;8.50;77.70;;;;;;4978911;28;20102;-68
2022/02/04 11:35:49;;;;;;;13.02;7.63;;;8.40;77.10;;;;;;4977104;28;20493;-68
2022/02/04 11:56:29;;;;;;;9.07;5.95;;;8.30;77.00;;;;;;4978728;28;20046;-68
2022/02/04 11:58:59;;;;;;;13.15;6.85;;;8.30;77.60;;;;;;4976990;28;20041;-68
2022/02/04 12:01:43;;;;;;;11.45;7.25;;;8.20;77.40;;;;;;4977248;28;20038;-68
2022/02/04 12:04:20;;;;;;;9.00;6.45;;;8.30;77.20;;;;;;4977646;28;20412;-67
2022/02/04 12:06:46;;;;;;;7.70;5.32;;;8.30;77.30;;;;;;4976622;28;20038;-68
2022/02/04 12:09:13;;;;;;;6.25;5.25;;;8.30;78.30;;;;;;4977254;28;20532;-67
2022/02/04 12:11:40;;;;;;;11.70;5.70;;;8.30;77.50;;;;;;4976906;28;20038;-67
2022/02/04 12:14:11;;;;;;;9.65;4.68;;;8.30;77.50;;;;;;4975679;28;20038;-67
2022/02/04 12:17:03;;;;;;;8.80;4.97;;;8.30;77.10;;;;;;4975857;28;20034;-67
2022/02/04 12:19:41;;;;;;;7.32;5.20;;;8.40;76.80;;;;;;4971988;28;20058;-67
2022/02/04 12:22:08;;;;;;;6.60;4.68;;;8.40;76.90;;;;;;4976949;28;20030;-66
2022/02/04 12:24:36;;;;;;;6.97;4.88;;;8.30;76.90;;;;;;4975808;28;20037;-66
2022/02/04 12:27:28;;;;;;;12.50;4.60;;;8.40;76.90;;;;;;4977114;28;20073;-66
2022/02/04 12:29:55;;;;;;;7.60;3.85;;;8.40;76.20;;;;;;4976442;28;20085;-66
2022/02/04 12:32:21;;;;;;;6.75;4.15;;;8.40;76.90;;;;;;4976852;28;20525;-66
2022/02/04 12:34:48;;;;;;;7.57;4.50;;;8.40;76.90;;;;;;4977430;28;20041;-66
2022/02/04 12:37:16;;;;;;;6.82;4.30;;;8.40;76.80;;;;;;4978055;28;20130;-67
2022/02/04 12:39:42;;;;;;;7.70;4.43;;;8.40;76.70;;;;;;4977584;28;20039;-66
2022/02/04 12:42:13;;;;;;;8.32;4.13;;;8.40;76.90;;;;;;4978197;28;20056;-66
2022/02/04 12:44:40;;;;;;;5.32;3.88;;;8.50;76.80;;;;;;4977428;28;20035;-66
2022/02/04 12:47:12;;;;;;;6.18;4.30;;;8.50;76.60;;;;;;4978804;28;20169;-66
2022/02/04 12:49:50;;;;;;;7.97;5.18;;;8.50;76.50;;;;;;4976431;28;20070;-67
2022/02/04 12:52:25;;;;;;;7.00;4.78;;;8.50;76.30;;;;;;4975221;28;20138;-66
2022/02/04 12:55:01;;;;;;;6.70;4.65;;;8.50;76.70;;;;;;4976818;28;20572;-67
2022/02/04 13:11:25;;;;;;;6.10;4.28;;;8.60;75.60;;;;;;4945515;28;20039;-67
2022/02/04 13:13:57;;;;;;;7.25;5.03;;;8.60;74.90;;;;;;4981582;28;20066;-66
2022/02/04 13:16:31;;;;;;;5.80;4.25;;;8.60;75.20;;;;;;4977254;28;20517;-67
2022/02/04 13:19:05;;;;;;;25.08;13.45;;;8.60;75.60;;;;;;4981266;28;20046;-67
2022/02/04 13:21:33;;;;;;;7.25;4.35;;;8.60;75.30;;;;;;4978569;28;20173;-67
2022/02/04 13:24:06;;;;;;;3.78;3.08;;;8.60;75.30;;;;;;4982433;28;20034;-66
2022/02/04 13:26:32;;;;;;;5.35;3.53;;;8.60;74.40;;;;;;4980499;28;20111;-67
2022/02/04 13:29:00;;;;;;;5.93;4.03;;;8.60;75.20;;;;;;4981564;28;20027;-67
2022/02/04 13:31:26;;;;;;;3.85;2.78;;;8.60;75.10;;;;;;4978749;28;20031;-68
2022/02/04 13:33:53;;;;;;;5.20;3.28;;;8.60;74.90;;;;;;4984906;28;20042;-67
2022/02/04 13:36:43;;;;;;;4.15;3.15;;;8.60;75.50;;;;;;4979596;28;20049;-67
2022/02/04 13:49:50;;;;;;;7.15;2.80;;;8.50;74.20;;;;;;4980348;28;20038;-65
2022/02/04 13:52:09;;;;;;;2.67;2.45;;;8.50;74.20;;;;;;4979774;28;20124;-68
2022/02/04 14:00:31;;;;;;;4.78;2.60;;;8.50;74.50;;;;;;4979793;28;20103;-67
2022/02/04 14:03:17;;;;;;;3.67;2.75;;;8.50;73.70;;;;;;4978532;28;20466;-67
2022/02/04 14:05:51;;;;;;;3.22;2.30;;;8.50;73.50;;;;;;4979511;28;20444;-67
2022/02/04 14:08:28;;;;;;;3.13;2.70;;;8.50;74.20;;;;;;4978268;28;20043;-67
2022/02/04 14:11:00;;;;;;;2.63;2.40;;;8.50;73.70;;;;;;4979963;28;20034;-67
2022/02/04 14:13:27;;;;;;;2.63;2.42;;;8.50;74.00;;;;;;4978483;28;20042;-67
2022/02/04 14:16:05;;;;;;;3.05;2.75;;;8.50;73.90;;;;;;4979113;28;20053;-66
2022/02/04 14:18:32;;;;;;;4.22;3.35;;;8.50;73.30;;;;;;4978346;28;20034;-68
2022/02/04 14:20:58;;;;;;;4.15;3.08;;;8.50;73.70;;;;;;4978923;28;20035;-67
2022/02/04 14:23:24;;;;;;;2.45;2.13;;;8.50;73.70;;;;;;4980929;28;20070;-67
2022/02/04 14:26:02;;;;;;;3.08;2.50;;;8.50;73.70;;;;;;4979243;28;20038;-67
2022/02/04 15:00:53;;;;;;;3.17;2.50;;;8.60;73.20;;;;;;4979841;28;20041;-66
2022/02/04 15:03:26;;;;;;;2.40;1.95;;;8.60;73.10;;;;;;4981309;28;20097;-66
2022/02/04 15:08:36;;;;;;;2.40;2.13;;;8.70;72.90;;;;;;4980568;28;20038;-67
2022/02/04 15:11:10;;;;;;;2.10;1.70;;;8.60;72.60;;;;;;4981332;28;20038;-66
2022/02/04 15:13:37;;;;;;;3.83;1.50;;;8.60;72.70;;;;;;4980049;28;20045;-67
2022/02/04 15:16:06;;;;;;;2.40;1.58;;;8.60;72.70;;;;;;4980583;28;20042;-69
2022/02/04 15:18:36;;;;;;;2.95;1.92;;;8.70;72.80;;;;;;4980308;28;20116;-67
2022/02/04 15:21:05;;;;;;;2.60;1.92;;;8.70;72.50;;;;;;4979474;28;20042;-66
2022/02/04 15:23:31;;;;;;;2.35;2.13;;;8.70;72.50;;;;;;4981034;28;20110;-67
2022/02/04 15:25:57;;;;;;;4.95;2.63;;;8.70;72.60;;;;;;4979046;28;20037;-66
2022/02/04 15:28:38;;;;;;;9.27;5.30;;;8.70;72.30;;;;;;4977178;28;20251;-67
2022/02/04 15:31:05;;;;;;;7.82;4.78;;;8.70;72.20;;;;;;4980835;28;20042;-67
2022/02/04 15:33:34;;;;;;;6.78;3.92;;;8.70;72.30;;;;;;4980069;28;20043;-67
2022/02/04 15:36:00;;;;;;;3.15;2.33;;;8.60;72.30;;;;;;4981124;28;20401;-67
2022/02/04 15:38:26;;;;;;;3.50;2.40;;;8.60;72.20;;;;;;4980389;28;20041;-68
2022/02/04 15:40:52;;;;;;;3.65;2.60;;;8.60;72.00;;;;;;4980506;28;20026;-67
2022/02/04 15:43:18;;;;;;;3.08;2.20;;;8.60;72.30;;;;;;4980957;28;20035;-68
2022/02/04 15:51:18;;;;;;;2.78;1.92;;;8.50;72.30;;;;;;4963598;28;20035;-67
2022/02/04 16:01:44;;;;;;;3.78;3.15;;;8.40;72.40;;;;;;4979667;28;20510;-67
2022/02/04 16:04:22;;;;;;;9.40;6.88;;;8.40;72.30;;;;;;4980268;28;20410;-68
2022/02/04 16:06:48;;;;;;;4.35;3.08;;;8.30;72.30;;;;;;4978696;28;20061;-68
2022/02/04 16:09:15;;;;;;;4.88;3.10;;;8.30;72.50;;;;;;4979269;28;20520;-65
2022/02/04 16:14:33;;;;;;;1.65;1.20;;;8.30;72.60;;;;;;4975409;28;20074;-68
2022/02/04 16:17:23;;;;;;;1.90;1.17;;;8.20;72.60;;;;;;4990715;28;20026;-66
2022/02/04 16:20:11;;;;;;;1.65;1.42;;;8.20;72.50;;;;;;4976890;28;20050;-66
2022/02/04 16:25:14;;;;;;;1.67;1.48;;;8.10;72.80;;;;;;4976139;28;20047;-67
2022/02/04 16:30:08;;;;;;;1.00;0.90;;;8.10;72.90;;;;;;4976207;28;20505;-67
2022/02/04 16:32:34;;;;;;;2.55;1.67;;;8.10;72.90;;;;;;4976910;28;20066;-67
2022/02/04 16:35:03;;;;;;;2.70;1.85;;;8.10;73.00;;;;;;4976289;28;20481;-68
2022/02/04 16:40:05;;;;;;;1.40;1.30;;;8.00;73.00;;;;;;4974939;28;20054;-66
2022/02/04 16:42:31;;;;;;;1.38;1.00;;;8.00;72.90;;;;;;4975957;28;20074;-66
2022/02/04 16:44:57;;;;;;;1.13;0.80;;;8.00;73.00;;;;;;4976759;28;20507;-66
2022/02/04 16:47:23;;;;;;;1.92;1.00;;;8.00;73.00;;;;;;4977529;28;20030;-67
2022/02/04 16:49:49;;;;;;;1.20;0.70;;;8.00;73.20;;;;;;4977230;28;20509;-67
2022/02/04 16:52:15;;;;;;;1.13;0.85;;;8.00;73.20;;;;;;4974964;28;20055;-67
2022/02/04 16:54:42;;;;;;;1.30;1.00;;;7.90;73.20;;;;;;4991130;28;20041;-68
2022/02/04 16:57:08;;;;;;;1.27;1.10;;;7.90;73.20;;;;;;4975888;28;20063;-67
2022/02/04 16:59:34;;;;;;;1.08;0.90;;;7.90;73.30;;;;;;4976277;28;20544;-67
2022/02/04 17:02:00;;;;;;;1.83;1.00;;;7.90;73.40;;;;;;4977340;28;20400;-66
2022/02/04 17:04:26;;;;;;;1.23;0.90;;;7.90;73.50;;;;;;4976027;28;20057;-67
2022/02/04 17:07:16;;;;;;;1.38;0.90;;;7.90;73.50;;;;;;4979193;28;20719;-67
2022/02/04 17:09:47;;;;;;;1.25;0.90;;;7.90;73.60;;;;;;4975585;28;20813;-66
2022/02/04 17:12:13;;;;;;;2.35;1.00;;;7.90;73.60;;;;;;4977212;28;20081;-67
2022/02/04 17:14:38;;;;;;;1.17;0.90;;;7.80;73.50;;;;;;4976208;28;20042;-67
2022/02/04 17:17:06;;;;;;;1.20;0.77;;;7.80;73.40;;;;;;4976069;28;20393;-67
2022/02/04 17:19:39;;;;;;;1.20;1.10;;;7.80;73.50;;;;;;4975864;28;20027;-67
2022/02/04 17:22:07;;;;;;;2.03;1.10;;;7.80;73.50;;;;;;4976577;28;20028;-66
2022/02/04 17:24:32;;;;;;;1.73;1.27;;;7.80;73.70;;;;;;4975436;28;20033;-68
2022/02/04 17:27:00;;;;;;;0.80;0.75;;;7.80;73.70;;;;;;4975501;28;20027;-67
2022/02/04 17:29:28;;;;;;;1.00;0.90;;;7.80;73.70;;;;;;4974307;28;20027;-67
2022/02/04 17:31:54;;;;;;;2.15;1.10;;;7.80;73.70;;;;;;4981890;28;20035;-66
2022/02/04 17:34:20;;;;;;;1.90;1.05;;;7.70;73.50;;;;;;4975024;28;20034;-66
2022/02/04 17:36:46;;;;;;;2.72;1.15;;;7.80;73.70;;;;;;4974507;28;20511;-68
2022/02/04 17:39:19;;;;;;;2.17;0.90;;;7.80;73.80;;;;;;4975042;28;20043;-67
2022/02/04 17:41:47;;;;;;;1.30;1.20;;;7.80;73.70;;;;;;4975250;28;20031;-67
2022/02/04 17:44:16;;;;;;;2.15;0.70;;;7.70;74.60;;;;;;4979315;28;20097;-64
2022/02/04 17:46:43;;;;;;;2.20;0.98;;;7.70;73.60;;;;;;4981024;28;20030;-67
2022/02/04 17:49:24;;;;;;;0.88;0.88;;;7.70;73.70;;;;;;4980060;28;20053;-67
2022/02/04 17:54:32;;;;;;;2.55;0.65;;;7.60;73.70;;;;;;4979285;28;20030;-67
2022/02/04 18:07:15;;;;;;;2.70;1.45;;;7.50;73.60;;;;;;4978402;28;20574;-67
2022/02/04 18:09:43;;;;;;;0.95;0.80;;;7.50;73.50;;;;;;4978927;28;20130;-68
2022/02/04 18:12:11;;;;;;;0.63;0.60;;;7.50;73.60;;;;;;4979344;28;20031;-67
2022/02/04 18:14:37;;;;;;;1.35;0.75;;;7.50;73.60;;;;;;4979209;28;20553;-66
2022/02/04 18:17:04;;;;;;;1.05;0.75;;;7.50;74.40;;;;;;4982049;28;20035;-65
2022/02/04 18:19:30;;;;;;;2.15;0.70;;;7.50;73.50;;;;;;4979219;28;20505;-66
2022/02/04 18:21:55;;;;;;;1.35;0.77;;;7.40;73.60;;;;;;4994276;28;20027;-67
2022/02/04 18:24:22;;;;;;;0.77;0.50;;;7.50;73.60;;;;;;4979731;28;20089;-68
2022/02/04 18:26:47;;;;;;;1.15;0.60;;;7.50;73.30;;;;;;4979533;28;20435;-67
2022/02/04 18:29:13;;;;;;;0.60;0.32;;;7.50;74.20;;;;;;4979453;28;20074;-67
2022/02/04 18:31:39;;;;;;;0.50;0.50;;;7.50;73.30;;;;;;4980099;28;20298;-67
2022/02/04 18:34:05;;;;;;;0.50;0.50;;;7.40;73.20;;;;;;4979113;28;20125;-66
2022/02/04 18:36:34;;;;;;;0.50;0.30;;;7.40;73.20;;;;;;4980896;28;20525;-67
2022/02/04 18:44:27;;;;;;;0.73;0.52;;;7.40;73.40;;;;;;4979634;28;20046;-68
2022/02/04 18:51:55;;;;;;;2.35;0.70;;;7.40;73.40;;;;;;4978711;28;20046;-67
2022/02/04 18:59:25;;;;;;;0.60;0.50;;;7.40;73.50;;;;;;4978412;28;20109;-68
2022/02/04 19:01:51;;;;;;;0.50;0.50;;;7.40;73.70;;;;;;4977068;28;20034;-67
2022/02/04 19:04:21;;;;;;;0.45;0.43;;;7.40;73.70;;;;;;4977860;28;20112;-67
2022/02/04 19:06:54;;;;;;;0.98;0.57;;;7.50;73.70;;;;;;4979551;28;20037;-68
2022/02/04 19:09:20;;;;;;;0.50;0.50;;;7.50;73.70;;;;;;4984896;28;20416;-67
2022/02/04 19:11:50;;;;;;;0.85;0.40;;;7.50;73.70;;;;;;4976611;28;20039;-68
2022/02/04 19:17:42;;;;;;;0.50;0.50;;;7.60;73.70;;;;;;4978827;28;20133;-67
2022/02/04 19:22:29;;;;;;;0.77;0.50;;;7.60;73.80;;;;;;4980496;28;20031;-66
2022/02/04 19:24:58;;;;;;;0.70;0.40;;;7.60;73.70;;;;;;4976958;28;20910;-67
2022/02/04 19:27:24;;;;;;;0.30;0.30;;;7.60;73.80;;;;;;4979140;28;20030;-67
2022/02/04 19:29:50;;;;;;;0.52;0.50;;;7.70;73.70;;;;;;4976978;28;20050;-66
2022/02/04 19:32:16;;;;;;;0.30;0.30;;;7.70;73.80;;;;;;4977863;28;20031;-67
2022/02/04 19:34:43;;;;;;;0.50;0.30;;;7.70;73.80;;;;;;4977035;28;20171;-66
2022/02/04 19:37:09;;;;;;;0.45;0.30;;;7.70;73.70;;;;;;4979182;28;20034;-67
2022/02/04 19:39:35;;;;;;;0.40;0.40;;;7.80;73.80;;;;;;4977645;28;20624;-67
2022/02/04 19:42:05;;;;;;;1.95;0.38;;;7.80;73.70;;;;;;4977266;28;20030;-67
2022/02/04 19:44:33;;;;;;;1.20;0.47;;;7.80;73.60;;;;;;4977397;28;20037;-66
2022/02/04 19:47:03;;;;;;;0.47;0.40;;;7.80;73.70;;;;;;4978561;28;20112;-66
2022/02/04 19:49:40;;;;;;;0.75;0.38;;;7.80;73.70;;;;;;4979148;28;20030;-68
2022/02/04 19:52:34;;;;;;;0.40;0.40;;;7.80;73.60;;;;;;4989000;28;20464;-67
2022/02/04 19:55:20;;;;;;;0.98;0.30;;;7.80;73.50;;;;;;4975069;28;20034;-67
2022/02/04 20:25:06;;;;;;;1.15;0.60;;;8.00;73.80;;;;;;4976301;28;20041;-66
2022/02/04 20:27:34;;;;;;;0.65;0.60;;;8.00;73.90;;;;;;4977651;28;20035;-67
2022/02/04 20:30:00;;;;;;;0.77;0.63;;;8.10;73.90;;;;;;4977060;28;20564;-68
2022/02/04 20:32:26;;;;;;;0.90;0.60;;;8.10;73.70;;;;;;4976365;28;20034;-66
2022/02/04 20:34:52;;;;;;;1.45;0.80;;;8.10;73.80;;;;;;4974272;28;20034;-67
2022/02/04 20:37:18;;;;;;;0.70;0.50;;;8.10;73.90;;;;;;4976682;28;20030;-66
2022/02/04 20:39:52;;;;;;;0.88;0.70;;;8.20;73.80;;;;;;4975798;28;20030;-67
2022/02/04 20:42:18;;;;;;;0.83;0.60;;;8.20;73.90;;;;;;4976494;28;20042;-66
2022/02/04 20:44:47;;;;;;;0.50;0.50;;;8.20;73.80;;;;;;4974450;28;20034;-66
2022/02/04 20:47:13;;;;;;;1.50;0.57;;;8.20;73.70;;;;;;4974695;28;20042;-68
2022/02/04 20:49:39;;;;;;;0.93;0.70;;;8.20;73.60;;;;;;4971933;28;20034;-66
2022/02/04 20:52:05;;;;;;;1.00;0.90;;;8.20;73.70;;;;;;4975314;28;20497;-66